createdAt,value
2018-04-25T00:00:59.447Z,93.30
2018-04-25T00:05:01.975Z,93.30
2018-04-25T00:09:10.483Z,93.50
2018-04-25T00:13:12.991Z,93.30
2018-04-25T00:17:15.539Z,93.40
2018-04-25T00:21:18.840Z,93.30
2018-04-25T00:25:21.392Z,93.30
2018-04-25T00:29:23.906Z,93.50
2018-04-25T00:33:26.442Z,93.40
2018-04-25T00:37:28.963Z,93.30
2018-04-25T00:41:36.985Z,93.30
2018-04-25T00:45:39.576Z,93.30
2018-04-25T00:49:42.867Z,93.30
2018-04-25T00:53:45.374Z,93.30
2018-04-25T00:57:47.920Z,93.40
2018-04-25T01:01:50.438Z,93.40
2018-04-25T01:05:54.080Z,93.60
2018-04-25T01:09:56.606Z,93.60
2018-04-25T01:13:59.163Z,93.60
2018-04-25T01:18:01.700Z,93.70
2018-04-25T01:22:04.239Z,93.90
2018-04-25T01:26:06.816Z,94.30
2018-04-25T01:30:09.321Z,94.50
2018-04-25T01:34:16.511Z,94.70
2018-04-25T01:38:19.047Z,94.70
2018-04-25T01:42:26.442Z,95.00
2018-04-25T01:46:31.501Z,95.60
2018-04-25T01:50:37.003Z,96.10
2018-04-25T01:54:52.197Z,96.30
2018-04-25T01:59:07.220Z,96.90
2018-04-25T02:03:27.280Z,96.90
2018-04-25T02:07:29.799Z,97.30
2018-04-25T02:11:32.343Z,97.30
2018-04-25T02:15:34.851Z,97.40
2018-04-25T02:19:37.490Z,97.30
2018-04-25T02:23:44.051Z,97.30
2018-04-25T02:27:46.595Z,97.60
2018-04-25T02:31:49.148Z,97.70
2018-04-25T02:35:51.802Z,97.70
2018-04-25T02:39:55.086Z,98.10
2018-04-25T02:43:58.431Z,98.30
2018-04-25T02:48:00.951Z,98.30
2018-04-25T02:52:03.501Z,97.90
2018-04-25T02:56:06.058Z,98.10
2018-04-25T03:00:08.759Z,98.00
2018-04-25T03:04:11.279Z,98.30
2018-04-25T03:08:18.938Z,98.50
2018-04-25T03:12:21.445Z,98.60
2018-04-25T03:16:24.075Z,98.50
2018-04-25T03:20:27.352Z,98.20
2018-04-25T03:24:29.895Z,98.20
2018-04-25T03:28:32.432Z,98.20
2018-04-25T03:32:34.979Z,98.20
2018-04-25T03:36:37.490Z,97.90
2018-04-25T03:40:40.047Z,98.10
2018-04-25T03:44:42.586Z,98.20
2018-04-25T03:48:45.130Z,98.20
2018-04-25T03:52:48.411Z,98.30
2018-04-25T03:56:51.043Z,98.30
2018-04-25T04:00:53.556Z,98.20
2018-04-25T04:04:56.100Z,98.10
2018-04-25T04:08:58.611Z,98.60
2018-04-25T04:13:01.184Z,98.10
2018-04-25T04:17:03.690Z,98.20
2018-04-25T04:21:06.235Z,98.40
2018-04-25T04:25:08.754Z,98.30
2018-04-25T04:29:11.293Z,97.90
2018-04-25T04:33:13.807Z,98.00
2018-04-25T04:37:17.119Z,98.10
2018-04-25T04:41:19.647Z,98.10
2018-04-25T04:45:23.951Z,98.60
2018-04-25T04:49:26.495Z,98.60
2018-04-25T04:53:29.040Z,98.30
2018-04-25T04:57:33.604Z,98.20
2018-04-25T05:01:37.258Z,98.30
2018-04-25T05:05:39.772Z,97.90
2018-04-25T05:09:42.305Z,97.80
2018-04-25T05:13:45.774Z,97.70
2018-04-25T05:17:50.354Z,97.60
2018-04-25T05:21:52.876Z,97.40
2018-04-25T05:25:55.438Z,97.20
2018-04-25T05:29:57.951Z,97.20
2018-04-25T05:34:04.671Z,96.80
2018-04-25T05:38:11.232Z,96.70
2018-04-25T05:42:13.923Z,96.90
2018-04-25T05:46:16.470Z,96.80
2018-04-25T05:50:19.019Z,96.80
2018-04-25T05:54:21.631Z,96.60
2018-04-25T05:58:24.207Z,96.90
2018-04-25T06:02:27.710Z,97.10
2018-04-25T06:06:30.258Z,97.10
2018-04-25T06:10:32.774Z,96.70
2018-04-25T06:14:36.078Z,96.70
2018-04-25T06:18:38.590Z,96.70
2018-04-25T06:22:41.898Z,97.00
2018-04-25T06:26:44.419Z,97.00
2018-04-25T06:30:47.730Z,97.20
2018-04-25T06:34:50.243Z,97.20
2018-04-25T06:38:55.100Z,97.20
2018-04-25T06:42:57.609Z,96.90
2018-04-25T06:47:02.866Z,97.20
2018-04-25T06:51:05.379Z,97.20
2018-04-25T06:55:08.707Z,97.50
2018-04-25T06:59:11.284Z,97.40
2018-04-25T07:03:13.837Z,97.00
2018-04-25T07:07:16.382Z,97.00
2018-04-25T07:11:19.010Z,95.90
2018-04-25T07:15:21.521Z,94.90
2018-04-25T07:19:24.459Z,93.30
2018-04-25T07:23:27.744Z,85.20
2018-04-25T07:27:31.466Z,85.10
2018-04-25T07:31:33.983Z,78.80
2018-04-25T07:35:36.612Z,76.30
2018-04-25T07:39:39.127Z,81.80
2018-04-25T07:43:42.519Z,90.90
2018-04-25T07:47:45.035Z,90.90
2018-04-25T07:51:47.935Z,91.80
2018-04-25T07:55:50.486Z,92.70
2018-04-25T07:59:53.878Z,92.80
2018-04-25T08:03:56.386Z,92.80
2018-04-25T08:07:59.308Z,93.20
2018-04-25T08:12:16.973Z,93.90
2018-04-25T08:16:31.455Z,93.40
2018-04-25T08:20:45.759Z,93.70
2018-04-25T08:24:49.066Z,94.30
2018-04-25T08:28:51.583Z,94.30
2018-04-25T08:32:55.011Z,95.00
2018-04-25T08:36:57.508Z,95.00
2018-04-25T08:41:04.699Z,95.70
2018-04-25T08:45:07.293Z,95.70
2018-04-25T08:49:10.635Z,95.20
2018-04-25T08:53:14.122Z,95.20
2018-04-25T08:57:16.682Z,95.80
2018-04-25T09:01:19.205Z,95.70
2018-04-25T09:05:22.547Z,95.50
2018-04-25T09:09:25.062Z,95.40
2018-04-25T09:13:28.466Z,96.20
2018-04-25T09:17:30.986Z,96.50
2018-04-25T09:21:33.524Z,96.80
2018-04-25T09:25:36.041Z,95.90
2018-04-25T09:29:38.584Z,95.80
2018-04-25T09:33:41.863Z,95.60
2018-04-25T09:37:44.783Z,95.60
2018-04-25T09:41:49.299Z,94.80
2018-04-25T09:45:51.885Z,95.10
2018-04-25T09:49:54.382Z,95.20
2018-04-25T09:54:03.503Z,94.80
2018-04-25T09:58:06.087Z,94.70
2018-04-25T10:02:24.659Z,94.70
2018-04-25T10:06:27.171Z,94.30
2018-04-25T10:10:29.822Z,93.90
2018-04-25T10:14:32.344Z,94.30
2018-04-25T10:18:35.731Z,96.20
2018-04-25T10:22:38.239Z,96.20
2018-04-25T10:26:40.790Z,97.30
2018-04-25T10:30:43.334Z,97.30
2018-04-25T10:34:45.991Z,97.20
2018-04-25T10:38:49.282Z,96.60
2018-04-25T10:42:51.919Z,96.60
2018-04-25T10:46:55.207Z,96.30
2018-04-25T10:50:58.141Z,96.30
2018-04-25T10:55:00.664Z,95.90
2018-04-25T10:59:04.064Z,97.60
2018-04-25T11:03:06.654Z,97.30
2018-04-25T11:07:09.607Z,97.70
2018-04-25T11:11:12.886Z,99.90
2018-04-25T11:15:15.443Z,99.90
2018-04-25T11:19:23.932Z,99.90
2018-04-25T11:23:26.855Z,99.90
2018-04-25T11:27:29.387Z,99.90
2018-04-25T11:31:31.929Z,99.90
2018-04-25T11:35:34.447Z,99.90
2018-04-25T11:39:37.316Z,99.90
2018-04-25T11:43:39.838Z,99.90
2018-04-25T11:47:43.170Z,99.90
2018-04-25T11:51:46.453Z,99.60
2018-04-25T11:55:49.011Z,99.50
2018-04-25T11:59:54.914Z,99.90
2018-04-25T12:03:57.979Z,99.50
2018-04-25T12:08:00.494Z,97.40
2018-04-25T12:12:03.809Z,98.00
2018-04-25T12:16:06.326Z,98.00
2018-04-25T12:20:09.633Z,97.00
2018-04-25T12:24:12.152Z,97.00
2018-04-25T12:28:15.460Z,96.60
2018-04-25T12:32:25.288Z,96.60
2018-04-25T12:36:27.851Z,95.30
2018-04-25T12:40:30.370Z,94.80
2018-04-25T12:44:37.079Z,94.30
2018-04-25T12:48:39.593Z,94.30
2018-04-25T12:52:42.247Z,93.90
2018-04-25T12:56:56.093Z,94.20
2018-04-25T13:00:58.767Z,94.20
2018-04-25T13:05:02.099Z,92.10
2018-04-25T13:09:04.662Z,92.10
2018-04-25T13:13:07.166Z,92.70
2018-04-25T13:17:14.563Z,92.50
2018-04-25T13:21:19.020Z,93.20
2018-04-25T13:25:26.389Z,93.10
2018-04-25T13:29:43.755Z,93.20
2018-04-25T13:33:46.344Z,93.20
2018-04-25T13:37:51.607Z,93.80
2018-04-25T13:41:54.507Z,93.80
2018-04-25T13:45:57.029Z,93.50
2018-04-25T13:50:05.835Z,91.50
2018-04-25T13:54:08.371Z,91.50
2018-04-25T13:58:10.924Z,90.50
2018-04-25T14:02:14.206Z,89.00
2018-04-25T14:06:16.759Z,89.00
2018-04-25T14:10:21.238Z,89.50
2018-04-25T14:14:24.786Z,88.70
2018-04-25T14:18:28.268Z,90.10
2018-04-25T14:22:30.833Z,90.70
2018-04-25T14:26:34.121Z,90.40
2018-04-25T14:30:36.695Z,90.40
2018-04-25T14:34:39.210Z,91.40
2018-04-25T14:38:49.809Z,90.50
2018-04-25T14:42:52.330Z,91.40
2018-04-25T14:46:55.908Z,92.20
2018-04-25T14:50:59.218Z,90.20
2018-04-25T14:55:05.621Z,90.20
2018-04-25T14:59:08.902Z,88.60
2018-04-25T15:03:11.457Z,88.60
2018-04-25T15:07:14.791Z,90.50
2018-04-25T15:11:17.355Z,90.40
2018-04-25T15:15:19.885Z,86.70
2018-04-25T15:19:25.172Z,87.50
2018-04-25T15:23:27.759Z,87.40
2018-04-25T15:27:31.708Z,86.00
2018-04-25T15:31:35.004Z,88.80
2018-04-25T15:35:37.547Z,85.70
2018-04-25T15:39:41.018Z,89.40
2018-04-25T15:43:44.503Z,88.40
2018-04-25T15:47:48.090Z,89.10
2018-04-25T15:51:51.304Z,86.90
2018-04-25T15:55:53.826Z,86.50
2018-04-25T15:59:56.358Z,90.70
2018-04-25T16:03:58.886Z,83.00
2018-04-25T16:08:01.523Z,83.70
2018-04-25T16:12:04.058Z,86.60
2018-04-25T16:16:21.680Z,88.00
2018-04-25T16:20:26.145Z,86.50
2018-04-25T16:24:28.691Z,85.50
2018-04-25T16:28:31.986Z,81.00
2018-04-25T16:32:34.546Z,81.90
2018-04-25T16:36:37.065Z,83.30
2018-04-25T16:40:39.900Z,84.90
2018-04-25T16:44:43.516Z,86.20
2018-04-25T16:48:51.536Z,87.50
2018-04-25T16:52:54.842Z,84.00
2018-04-25T16:56:57.516Z,82.90
2018-04-25T17:01:00.033Z,90.00
2018-04-25T17:05:02.614Z,86.50
2018-04-25T17:09:05.130Z,89.00
2018-04-25T17:13:07.678Z,89.70
2018-04-25T17:17:10.187Z,87.50
2018-04-25T17:21:13.031Z,87.40
2018-04-25T17:25:15.557Z,90.40
2018-04-25T17:29:18.191Z,88.30
2018-04-25T17:33:20.729Z,87.60
2018-04-25T17:37:24.299Z,88.30
2018-04-25T17:41:26.817Z,88.60
2018-04-25T17:45:30.150Z,89.90
2018-04-25T17:49:33.439Z,91.00
2018-04-25T17:53:36.023Z,91.00
2018-04-25T17:57:45.155Z,91.40
2018-04-25T18:01:53.077Z,91.40
2018-04-25T18:05:56.711Z,91.40
2018-04-25T18:10:00.619Z,90.70
2018-04-25T18:14:03.145Z,91.70
2018-04-25T18:18:06.455Z,91.10
2018-04-25T18:22:08.971Z,91.10
2018-04-25T18:26:13.379Z,91.10
2018-04-25T18:30:20.106Z,91.10
2018-04-25T18:34:28.445Z,91.50
2018-04-25T18:38:34.497Z,92.20
2018-04-25T18:42:37.038Z,92.40
2018-04-25T18:46:39.560Z,92.50
2018-04-25T18:50:54.739Z,93.30
2018-04-25T18:55:00.682Z,93.30
2018-04-25T18:59:06.727Z,93.70
2018-04-25T19:03:13.223Z,94.60
2018-04-25T19:07:16.836Z,94.60
2018-04-25T19:11:19.415Z,94.50
2018-04-25T19:15:22.035Z,94.70
2018-04-25T19:19:24.553Z,95.40
2018-04-25T19:23:27.114Z,95.40
2018-04-25T19:27:31.590Z,95.70
2018-04-25T19:31:34.151Z,95.80
2018-04-25T19:35:37.455Z,95.50
2018-04-25T19:39:43.942Z,95.50
2018-04-25T19:43:46.570Z,94.90
2018-04-25T19:47:49.972Z,94.90
2018-04-25T19:51:52.492Z,94.80
2018-04-25T19:55:56.032Z,94.80
2018-04-25T19:59:59.524Z,94.80
2018-04-25T20:04:02.081Z,94.40
2018-04-25T20:08:05.369Z,94.60
2018-04-25T20:12:08.010Z,94.60
2018-04-25T20:16:10.557Z,94.10
2018-04-25T20:20:13.413Z,93.90
2018-04-25T20:24:15.912Z,94.10
2018-04-25T20:28:18.462Z,94.20
2018-04-25T20:32:20.983Z,94.30
2018-04-25T20:36:23.525Z,93.90
2018-04-25T20:40:27.001Z,93.80
2018-04-25T20:44:29.562Z,93.20
2018-04-25T20:48:33.043Z,93.40
2018-04-25T20:52:35.608Z,92.90
2018-04-25T20:56:38.899Z,92.60
2018-04-25T21:00:41.475Z,92.50
2018-04-25T21:04:43.997Z,92.50
2018-04-25T21:08:46.595Z,92.70
2018-04-25T21:12:49.111Z,92.70
2018-04-25T21:16:55.003Z,92.60
2018-04-25T21:20:58.504Z,92.60
2018-04-25T21:25:03.119Z,92.50
2018-04-25T21:29:06.408Z,92.60
2018-04-25T21:33:08.975Z,92.60
2018-04-25T21:37:11.488Z,93.20
2018-04-25T21:41:14.127Z,92.70
2018-04-25T21:45:17.399Z,92.50
2018-04-25T21:49:23.731Z,92.10
2018-04-25T21:53:26.275Z,92.00
2018-04-25T21:57:29.251Z,92.20
2018-04-25T22:01:31.768Z,92.10
2018-04-25T22:05:34.702Z,92.50
2018-04-25T22:09:50.752Z,92.20
2018-04-25T22:13:53.438Z,92.30
2018-04-25T22:17:55.975Z,91.90
2018-04-25T22:22:03.654Z,92.10
2018-04-25T22:26:06.162Z,91.80
2018-04-25T22:30:08.710Z,91.90
2018-04-25T22:34:11.273Z,92.00
2018-04-25T22:38:13.872Z,92.10
2018-04-25T22:42:16.382Z,92.60
2018-04-25T22:46:18.954Z,92.20
2018-04-25T22:50:21.467Z,91.50
2018-04-25T22:54:25.594Z,88.90
2018-04-25T22:58:28.188Z,88.90
2018-04-25T23:02:34.558Z,87.60
2018-04-25T23:06:37.075Z,87.70
2018-04-25T23:10:41.695Z,88.30
2018-04-25T23:14:44.255Z,88.10
2018-04-25T23:18:47.758Z,88.10
2018-04-25T23:22:50.268Z,88.40
2018-04-25T23:26:53.587Z,88.90
2018-04-25T23:30:56.110Z,88.30
2018-04-25T23:34:59.414Z,88.40
2018-04-25T23:39:01.924Z,88.30
2018-04-25T23:43:04.476Z,88.00
2018-04-25T23:47:06.995Z,88.70
2018-04-25T23:51:09.555Z,89.70
2018-04-25T23:55:12.826Z,89.30
2018-04-25T23:59:15.378Z,89.30
